createdAt,value
2022-12-18T00:01:29.186Z,101237.00
2022-12-18T00:03:57.594Z,101230.72
2022-12-18T00:06:27.448Z,101233.19
2022-12-18T00:08:57.912Z,101261.47
2022-12-18T00:11:28.379Z,101264.19
2022-12-18T00:13:58.070Z,101251.97
2022-12-18T00:16:28.178Z,101268.56
2022-12-18T00:18:57.515Z,101266.94
2022-12-18T00:21:25.771Z,101218.16
2022-12-18T00:23:53.662Z,101255.47
2022-12-18T00:26:25.011Z,101270.16
2022-12-18T00:29:18.561Z,101259.53
2022-12-18T00:31:46.377Z,101225.75
2022-12-18T00:34:14.569Z,101264.13
2022-12-18T00:36:42.693Z,101191.38
2022-12-18T00:39:13.165Z,101259.19
2022-12-18T00:42:09.966Z,101283.16
2022-12-18T00:44:39.043Z,101274.44
2022-12-18T00:47:06.688Z,101230.84
2022-12-18T00:49:34.533Z,101261.06
2022-12-18T00:52:02.409Z,101291.28
2022-12-18T00:54:30.098Z,101260.78
2022-12-18T00:56:58.090Z,101297.03
2022-12-18T00:59:27.261Z,101236.78
2022-12-18T01:01:55.292Z,101295.69
2022-12-18T01:04:23.046Z,101298.66
2022-12-18T01:06:50.853Z,101265.16
2022-12-18T01:09:18.660Z,101290.78
2022-12-18T01:11:46.379Z,101259.69
2022-12-18T01:14:14.117Z,101283.94
2022-12-18T01:16:42.028Z,101279.59
2022-12-18T01:19:10.058Z,101236.84
2022-12-18T01:21:37.818Z,101285.31
2022-12-18T01:24:06.360Z,101304.91
2022-12-18T01:26:35.196Z,101315.28
2022-12-18T01:29:02.964Z,101246.81
2022-12-18T01:31:34.128Z,101267.03
2022-12-18T01:34:06.551Z,101276.00
2022-12-18T01:36:38.357Z,101313.34
2022-12-18T01:39:13.954Z,101299.44
2022-12-18T01:42:02.125Z,101268.34
2022-12-18T01:44:55.525Z,101334.84
2022-12-18T01:47:29.042Z,101323.63
2022-12-18T01:49:59.610Z,101291.75
2022-12-18T01:52:33.017Z,101320.63
2022-12-18T01:55:02.951Z,101343.25
2022-12-18T01:57:30.994Z,101323.59
2022-12-18T02:00:02.949Z,101275.28
2022-12-18T02:02:43.202Z,101318.38
2022-12-18T02:05:13.994Z,101313.22
2022-12-18T02:08:11.718Z,101356.81
2022-12-18T02:11:05.906Z,101354.38
2022-12-18T02:13:57.268Z,101348.03
2022-12-18T02:16:44.760Z,101355.97
2022-12-18T02:19:31.294Z,101303.53
2022-12-18T02:22:17.292Z,101365.75
2022-12-18T02:25:20.456Z,101375.75
2022-12-18T02:27:50.520Z,101311.03
2022-12-18T02:30:20.292Z,101373.31
2022-12-18T02:32:53.784Z,101347.03
2022-12-18T02:35:28.995Z,101374.34
2022-12-18T02:38:00.021Z,101377.56
2022-12-18T02:40:31.748Z,101374.53
2022-12-18T02:43:12.499Z,101387.41
2022-12-18T02:45:51.887Z,101294.09
2022-12-18T02:48:33.978Z,101382.41
2022-12-18T02:51:17.670Z,101357.03
2022-12-18T02:53:57.684Z,101380.75
2022-12-18T02:56:40.354Z,101369.53
2022-12-18T02:59:20.050Z,101361.06
2022-12-18T03:02:24.134Z,101413.91
2022-12-18T03:05:02.347Z,101368.66
2022-12-18T03:08:18.590Z,101408.22
2022-12-18T03:10:55.400Z,101406.84
2022-12-18T03:13:36.377Z,101359.03
2022-12-18T03:16:09.421Z,101408.78
2022-12-18T03:18:49.883Z,101415.06
2022-12-18T03:21:22.914Z,101357.72
2022-12-18T03:23:54.121Z,101368.03
2022-12-18T03:26:27.739Z,101381.97
2022-12-18T03:29:06.368Z,101417.13
2022-12-18T03:31:36.275Z,101387.94
2022-12-18T03:34:10.954Z,101415.75
2022-12-18T03:36:45.086Z,101365.53
2022-12-18T03:39:14.956Z,101403.97
2022-12-18T03:42:22.725Z,101421.47
2022-12-18T03:45:04.138Z,101396.03
2022-12-18T03:47:51.368Z,101426.38
2022-12-18T03:50:31.208Z,101403.69
2022-12-18T03:53:17.790Z,101415.75
2022-12-18T03:55:50.754Z,101392.00
2022-12-18T03:58:26.633Z,101382.44
2022-12-18T04:01:11.189Z,101381.63
2022-12-18T04:03:42.866Z,101417.94
2022-12-18T04:06:12.230Z,101402.72
2022-12-18T04:08:42.714Z,101356.59
2022-12-18T04:11:13.302Z,101393.16
2022-12-18T04:13:43.716Z,101354.13
2022-12-18T04:16:19.089Z,101357.84
2022-12-18T04:18:48.049Z,101414.13
2022-12-18T04:21:16.450Z,101399.19
2022-12-18T04:23:44.539Z,101360.69
2022-12-18T04:26:12.342Z,101403.00
2022-12-18T04:29:02.690Z,101346.25
2022-12-18T04:31:30.785Z,101369.69
2022-12-18T04:33:59.188Z,101361.53
2022-12-18T04:36:27.616Z,101367.28
2022-12-18T04:38:56.633Z,101393.78
2022-12-18T04:41:24.549Z,101405.72
2022-12-18T04:43:54.177Z,101410.94
2022-12-18T04:46:23.322Z,101410.13
2022-12-18T04:48:51.194Z,101395.88
2022-12-18T04:51:23.301Z,101368.88
2022-12-18T04:53:55.037Z,101412.84
2022-12-18T04:56:23.034Z,101416.06
2022-12-18T04:58:51.262Z,101418.75
2022-12-18T05:01:20.212Z,101427.97
2022-12-18T05:03:48.369Z,101400.38
2022-12-18T05:06:16.078Z,101438.84
2022-12-18T05:08:43.835Z,101427.38
2022-12-18T05:11:17.909Z,101430.03
2022-12-18T05:13:46.706Z,101401.56
2022-12-18T05:16:14.943Z,101410.34
2022-12-18T05:18:43.144Z,101463.22
2022-12-18T05:21:10.917Z,101431.03
2022-12-18T05:23:39.056Z,101459.16
2022-12-18T05:26:08.990Z,101438.44
2022-12-18T05:28:37.522Z,101420.09
2022-12-18T05:31:06.433Z,101403.66
2022-12-18T05:33:36.107Z,101352.34
2022-12-18T05:36:07.373Z,101416.13
2022-12-18T05:38:38.139Z,101441.00
2022-12-18T05:41:06.767Z,101473.75
2022-12-18T05:43:40.246Z,101441.22
2022-12-18T05:46:12.413Z,101425.94
2022-12-18T05:48:40.144Z,101481.00
2022-12-18T05:51:17.807Z,101435.06
2022-12-18T05:53:46.548Z,101501.66
2022-12-18T05:56:16.904Z,101509.56
2022-12-18T05:58:46.845Z,101472.16
2022-12-18T06:01:18.330Z,101403.63
2022-12-18T06:03:47.439Z,101509.34
2022-12-18T06:06:25.545Z,101521.88
2022-12-18T06:08:54.784Z,101509.81
2022-12-18T06:11:25.905Z,101528.94
2022-12-18T06:13:59.310Z,101528.13
2022-12-18T06:16:28.944Z,101504.22
2022-12-18T06:19:02.367Z,101475.25
2022-12-18T06:21:30.497Z,101547.44
2022-12-18T06:23:59.590Z,101531.88
2022-12-18T06:26:28.618Z,101557.84
2022-12-18T06:28:58.598Z,101564.91
2022-12-18T06:31:27.300Z,101534.25
2022-12-18T06:33:55.319Z,101561.09
2022-12-18T06:36:23.365Z,101515.13
2022-12-18T06:38:51.072Z,101556.31
2022-12-18T06:41:21.987Z,101575.13
2022-12-18T06:43:50.255Z,101535.50
2022-12-18T06:46:18.041Z,101571.13
2022-12-18T06:48:50.080Z,101551.94
2022-12-18T06:51:19.838Z,101524.88
2022-12-18T06:53:47.938Z,101548.97
2022-12-18T06:56:15.812Z,101553.56
2022-12-18T06:58:43.834Z,101588.59
2022-12-18T07:01:13.607Z,101590.22
2022-12-18T07:03:43.005Z,101586.75
2022-12-18T07:06:19.883Z,101564.06
2022-12-18T07:08:48.964Z,101586.75
2022-12-18T07:11:17.873Z,101590.00
2022-12-18T07:13:46.704Z,101587.28
2022-12-18T07:16:24.779Z,101586.56
2022-12-18T07:18:55.818Z,101575.41
2022-12-18T07:21:25.613Z,101554.59
2022-12-18T07:23:53.892Z,101591.25
2022-12-18T07:26:22.728Z,101572.94
2022-12-18T07:28:51.027Z,101585.25
2022-12-18T07:31:21.523Z,101611.16
2022-12-18T07:33:50.837Z,101566.84
2022-12-18T07:36:18.976Z,101600.63
2022-12-18T07:38:50.734Z,101556.25
2022-12-18T07:41:19.749Z,101604.41
2022-12-18T07:43:48.415Z,101602.75
2022-12-18T07:46:17.355Z,101581.44
2022-12-18T07:48:49.301Z,101607.13
2022-12-18T07:51:18.586Z,101616.34
2022-12-18T07:53:46.323Z,101604.28
2022-12-18T07:56:32.134Z,101581.00
2022-12-18T07:59:00.238Z,101548.44
2022-12-18T08:01:31.203Z,101612.41
2022-12-18T08:03:59.843Z,101633.16
2022-12-18T08:06:27.539Z,101631.22
2022-12-18T08:08:57.036Z,101624.94
2022-12-18T08:11:26.719Z,101624.94
2022-12-18T08:13:55.281Z,101620.59
2022-12-18T08:16:24.128Z,101635.06
2022-12-18T08:18:54.055Z,101639.97
2022-12-18T08:21:28.077Z,101648.00
2022-12-18T08:23:58.276Z,101614.97
2022-12-18T08:26:29.825Z,101649.38
2022-12-18T08:28:59.050Z,101655.00
2022-12-18T08:31:28.608Z,101577.56
2022-12-18T08:33:57.847Z,101650.53
2022-12-18T08:36:26.453Z,101654.66
2022-12-18T08:38:55.299Z,101657.38
2022-12-18T08:41:23.800Z,101650.31
2022-12-18T08:44:10.742Z,101641.28
2022-12-18T08:46:41.487Z,101614.81
2022-12-18T08:49:11.021Z,101679.31
2022-12-18T08:51:40.299Z,101635.00
2022-12-18T08:54:10.641Z,101676.31
2022-12-18T08:56:38.639Z,101656.66
2022-12-18T08:59:06.475Z,101658.09
2022-12-18T09:01:34.406Z,101680.88
2022-12-18T09:04:03.420Z,101694.88
2022-12-18T09:06:32.270Z,101660.47
2022-12-18T09:09:01.133Z,101654.34
2022-12-18T09:11:30.802Z,101691.06
2022-12-18T09:14:00.537Z,101705.50
2022-12-18T09:16:32.403Z,101702.22
2022-12-18T09:19:01.515Z,101656.78
2022-12-18T09:21:34.412Z,101642.31
2022-12-18T09:24:06.945Z,101659.00
2022-12-18T09:26:37.765Z,101706.31
2022-12-18T09:29:08.305Z,101690.41
2022-12-18T09:31:37.341Z,101648.81
2022-12-18T09:34:07.082Z,101692.31
2022-12-18T09:36:35.378Z,101712.28
2022-12-18T09:39:08.108Z,101681.88
2022-12-18T09:41:44.747Z,101725.91
2022-12-18T09:44:44.448Z,101717.94
2022-12-18T09:47:19.336Z,101730.19
2022-12-18T09:49:50.727Z,101729.31
2022-12-18T09:52:48.516Z,101735.09
2022-12-18T09:55:38.855Z,101735.91
2022-12-18T09:58:23.217Z,101708.81
2022-12-18T10:00:53.480Z,101738.28
2022-12-18T10:03:22.173Z,101728.97
2022-12-18T10:06:09.324Z,101748.69
2022-12-18T10:08:44.465Z,101737.00
2022-12-18T10:11:30.424Z,101743.81
2022-12-18T10:14:31.778Z,101750.38
2022-12-18T10:16:59.386Z,101753.66
2022-12-18T10:19:50.519Z,101746.59
2022-12-18T10:22:53.737Z,101706.34
2022-12-18T10:25:32.508Z,101711.53
2022-12-18T10:28:11.719Z,101738.19
2022-12-18T10:30:41.356Z,101709.47
2022-12-18T10:33:16.576Z,101746.13
2022-12-18T10:35:46.568Z,101691.47
2022-12-18T10:38:14.161Z,101744.22
2022-12-18T10:40:58.212Z,101745.03
2022-12-18T10:43:30.694Z,101672.75
2022-12-18T10:46:04.760Z,101741.75
2022-12-18T10:48:34.417Z,101748.25
2022-12-18T10:51:10.911Z,101628.97
2022-12-18T10:53:44.003Z,101741.63
2022-12-18T10:56:13.201Z,101713.44
2022-12-18T10:58:41.717Z,101697.91
2022-12-18T11:01:14.435Z,101738.19
2022-12-18T11:04:03.365Z,101706.75
2022-12-18T11:06:33.893Z,101724.84
2022-12-18T11:09:12.301Z,101712.25
2022-12-18T11:11:41.118Z,101719.38
2022-12-18T11:14:24.254Z,101682.69
2022-12-18T11:19:42.557Z,101725.09
2022-12-18T11:22:33.447Z,101727.06
2022-12-18T11:25:32.480Z,101728.69
2022-12-18T11:28:06.977Z,101720.53
2022-12-18T11:30:37.991Z,101717.81
2022-12-18T11:33:05.767Z,101714.81
2022-12-18T11:35:50.153Z,101718.66
2022-12-18T11:38:27.312Z,101675.72
2022-12-18T11:41:07.231Z,101716.75
2022-12-18T11:43:51.245Z,101681.16
2022-12-18T11:46:28.568Z,101670.53
2022-12-18T11:49:11.650Z,101709.09
2022-12-18T11:52:19.764Z,101715.78
2022-12-18T11:54:51.449Z,101682.28
2022-12-18T11:57:47.248Z,101690.78
2022-12-18T12:00:21.174Z,101694.69
2022-12-18T12:03:19.819Z,101690.88
2022-12-18T12:06:02.258Z,101681.84
2022-12-18T12:08:48.768Z,101697.38
2022-12-18T12:11:34.060Z,101694.91
2022-12-18T12:14:01.872Z,101692.47
2022-12-18T12:17:14.551Z,101687.00
2022-12-18T12:19:48.584Z,101687.78
2022-12-18T12:22:58.008Z,101683.19
2022-12-18T12:25:39.282Z,101687.78
2022-12-18T12:28:19.405Z,101685.88
2022-12-18T12:30:57.520Z,101695.97
2022-12-18T12:33:44.361Z,101672.84
2022-12-18T12:36:21.400Z,101677.25
2022-12-18T12:38:58.565Z,101653.25
2022-12-18T12:41:47.022Z,101669.63
2022-12-18T12:44:23.273Z,101627.53
2022-12-18T12:46:56.286Z,101666.09
2022-12-18T12:49:29.090Z,101657.59
2022-12-18T12:52:08.820Z,101664.13
2022-12-18T12:54:37.771Z,101651.06
2022-12-18T12:57:44.119Z,101657.44
2022-12-18T13:00:18.098Z,101569.78
2022-12-18T13:03:14.325Z,101660.47
2022-12-18T13:05:47.851Z,101634.50
2022-12-18T13:08:33.988Z,101649.56
2022-12-18T13:11:22.413Z,101637.78
2022-12-18T13:13:57.959Z,101623.31
2022-12-18T13:16:28.608Z,101657.72
2022-12-18T13:18:59.984Z,101627.69
2022-12-18T13:21:34.723Z,101651.47
2022-12-18T13:24:26.767Z,101652.84
2022-12-18T13:26:55.332Z,101633.66
2022-12-18T13:29:45.559Z,101652.50
2022-12-18T13:32:26.639Z,101646.78
2022-12-18T13:35:35.485Z,101651.69
2022-12-18T13:38:27.231Z,101647.59
2022-12-18T13:40:56.907Z,101646.03
2022-12-18T13:43:46.519Z,101629.84
2022-12-18T13:46:48.727Z,101630.63
2022-12-18T13:49:45.539Z,101634.50
2022-12-18T13:52:23.910Z,101594.94
2022-12-18T13:55:19.393Z,101639.41
2022-12-18T13:57:47.721Z,101609.66
2022-12-18T14:00:26.464Z,101639.41
2022-12-18T14:02:54.356Z,101590.25
2022-12-18T14:05:23.819Z,101611.59
2022-12-18T14:07:53.097Z,101623.34
2022-12-18T14:13:12.561Z,101628.84
2022-12-18T14:15:43.943Z,101615.75
2022-12-18T14:18:30.689Z,101641.97
2022-12-18T14:21:01.048Z,101629.88
2022-12-18T14:23:41.375Z,101647.91
2022-12-18T14:26:30.469Z,101646.28
2022-12-18T14:29:21.665Z,101633.72
2022-12-18T14:32:17.022Z,101559.19
2022-12-18T14:34:51.127Z,101616.81
2022-12-18T14:37:24.227Z,101617.34
2022-12-18T14:40:10.548Z,101636.78
2022-12-18T14:42:39.585Z,101615.22
2022-12-18T14:45:40.984Z,101634.91
2022-12-18T14:48:21.571Z,101560.34
2022-12-18T14:51:20.210Z,101638.13
2022-12-18T14:54:15.509Z,101643.03
2022-12-18T14:56:49.884Z,101643.03
2022-12-18T14:59:25.198Z,101639.78
2022-12-18T15:02:09.855Z,101638.13
2022-12-18T15:04:43.006Z,101628.03
2022-12-18T15:07:12.508Z,101642.72
2022-12-18T15:09:43.001Z,101643.56
2022-12-18T15:12:35.425Z,101605.81
2022-12-18T15:15:05.408Z,101631.22
2022-12-18T15:17:34.270Z,101622.75
2022-12-18T15:20:10.381Z,101592.97
2022-12-18T15:22:39.733Z,101631.44
2022-12-18T15:25:37.905Z,101641.84
2022-12-18T15:28:19.865Z,101612.06
2022-12-18T15:31:05.526Z,101618.84
2022-12-18T15:33:55.380Z,101633.59
2022-12-18T15:36:26.334Z,101645.03
2022-12-18T15:39:04.676Z,101642.59
2022-12-18T15:41:38.206Z,101632.44
2022-12-18T15:44:26.534Z,101641.22
2022-12-18T15:46:54.350Z,101594.22
2022-12-18T15:49:22.168Z,101652.13
2022-12-18T15:51:55.828Z,101636.81
2022-12-18T15:54:44.007Z,101634.38
2022-12-18T15:57:24.814Z,101646.66
2022-12-18T15:59:54.534Z,101631.63
2022-12-18T16:02:24.334Z,101639.00
2022-12-18T16:04:53.406Z,101653.72
2022-12-18T16:07:25.189Z,101658.34
2022-12-18T16:09:53.688Z,101564.63
2022-12-18T16:12:23.748Z,101592.78
2022-12-18T16:14:52.114Z,101629.63
2022-12-18T16:17:20.140Z,101634.78
2022-12-18T16:19:48.025Z,101583.09
2022-12-18T16:22:24.564Z,101669.44
2022-12-18T16:24:54.054Z,101665.91
2022-12-18T16:27:22.838Z,101670.22
2022-12-18T16:29:51.680Z,101653.84
2022-12-18T16:32:22.009Z,101652.16
2022-12-18T16:34:51.369Z,101654.56
2022-12-18T16:37:19.380Z,101672.44
2022-12-18T16:39:47.571Z,101657.44
2022-12-18T16:42:20.720Z,101610.47
2022-12-18T16:44:50.665Z,101654.69
2022-12-18T16:47:19.135Z,101666.69
2022-12-18T16:49:47.162Z,101610.69
2022-12-18T16:52:15.386Z,101639.38
2022-12-18T16:54:43.257Z,101659.56
2022-12-18T16:57:16.010Z,101667.78
2022-12-18T16:59:44.023Z,101629.78
2022-12-18T17:02:24.591Z,101634.69
2022-12-18T17:04:57.303Z,101642.34
2022-12-18T17:07:26.295Z,101639.88
2022-12-18T17:09:54.437Z,101606.50
2022-12-18T17:12:24.127Z,101672.06
2022-12-18T17:14:51.916Z,101609.47
2022-12-18T17:17:21.947Z,101659.78
2022-12-18T17:19:51.732Z,101633.25
2022-12-18T17:22:20.380Z,101675.88
2022-12-18T17:24:48.341Z,101646.88
2022-12-18T17:27:16.446Z,101665.38
2022-12-18T17:29:47.735Z,101682.91
2022-12-18T17:32:17.382Z,101641.88
2022-12-18T17:34:45.423Z,101687.03
2022-12-18T17:37:13.378Z,101572.50
2022-12-18T17:39:42.165Z,101689.19
2022-12-18T17:42:14.784Z,101674.19
2022-12-18T17:44:44.359Z,101661.84
2022-12-18T17:47:13.820Z,101653.31
2022-12-18T17:49:41.657Z,101699.25
2022-12-18T17:52:09.910Z,101709.66
2022-12-18T17:54:39.998Z,101652.50
2022-12-18T17:57:10.552Z,101680.69
2022-12-18T17:59:38.682Z,101701.16
2022-12-18T18:02:06.700Z,101701.41
2022-12-18T18:04:36.145Z,101717.00
2022-12-18T18:07:03.930Z,101689.38
2022-12-18T18:09:33.348Z,101656.47
2022-12-18T18:12:19.804Z,101670.38
2022-12-18T18:14:47.888Z,101709.44
2022-12-18T18:17:16.007Z,101738.44
2022-12-18T18:19:46.773Z,101728.28
2022-12-18T18:22:17.829Z,101667.53
2022-12-18T18:24:47.116Z,101709.34
2022-12-18T18:27:15.216Z,101753.13
2022-12-18T18:29:43.438Z,101758.09
2022-12-18T18:32:11.328Z,101687.78
2022-12-18T18:34:41.281Z,101739.50
2022-12-18T18:37:10.510Z,101765.75
2022-12-18T18:39:38.580Z,101741.13
2022-12-18T18:42:06.645Z,101773.88
2022-12-18T18:44:34.427Z,101759.88
2022-12-18T18:47:02.836Z,101779.53
2022-12-18T18:49:34.888Z,101745.38
2022-12-18T18:52:03.926Z,101751.69
2022-12-18T18:54:31.768Z,101736.94
2022-12-18T18:59:47.458Z,101786.47
2022-12-18T19:02:15.923Z,101788.13
2022-12-18T19:04:46.517Z,101796.88
2022-12-18T19:07:24.327Z,101776.03
2022-12-18T19:10:04.288Z,101797.34
2022-12-18T19:12:52.686Z,101759.53
2022-12-18T19:15:22.926Z,101753.53
2022-12-18T19:17:50.961Z,101795.38
2022-12-18T19:20:19.594Z,101790.50
2022-12-18T19:22:55.217Z,101777.69
2022-12-18T19:25:40.678Z,101794.91
2022-12-18T19:28:15.344Z,101777.03
2022-12-18T19:30:56.343Z,101788.66
2022-12-18T19:33:42.468Z,101792.53
2022-12-18T19:36:12.429Z,101760.75
2022-12-18T19:38:44.946Z,101799.63
2022-12-18T19:41:15.726Z,101765.38
2022-12-18T19:43:45.543Z,101796.34
2022-12-18T19:46:16.330Z,101708.75
2022-12-18T19:48:46.778Z,101785.94
2022-12-18T19:51:18.185Z,101785.38
2022-12-18T19:53:46.996Z,101777.16
2022-12-18T19:56:21.331Z,101791.03
2022-12-18T19:58:49.696Z,101795.44
2022-12-18T20:01:19.021Z,101755.72
2022-12-18T20:03:52.652Z,101793.22
2022-12-18T20:06:31.604Z,101782.25
2022-12-18T20:09:02.301Z,101794.56
2022-12-18T20:11:31.209Z,101790.50
2022-12-18T20:13:59.167Z,101767.53
2022-12-18T20:16:27.095Z,101764.22
2022-12-18T20:18:57.840Z,101798.94
2022-12-18T20:21:26.439Z,101770.50
2022-12-18T20:23:56.003Z,101807.66
2022-12-18T20:26:25.012Z,101700.41
2022-12-18T20:28:54.388Z,101799.72
2022-12-18T20:31:23.025Z,101786.00
2022-12-18T20:33:52.175Z,101801.09
2022-12-18T20:36:23.367Z,101805.47
2022-12-18T20:38:57.238Z,101803.81
2022-12-18T20:41:35.035Z,101800.28
2022-12-18T20:44:23.134Z,101808.13
2022-12-18T20:46:57.028Z,101807.06
2022-12-18T20:49:27.471Z,101790.94
2022-12-18T20:51:57.335Z,101786.59
2022-12-18T20:54:27.387Z,101790.22
2022-12-18T20:56:58.345Z,101808.25
2022-12-18T20:59:29.183Z,101802.88
2022-12-18T21:01:57.174Z,101750.00
2022-12-18T21:04:26.450Z,101802.78
2022-12-18T21:07:02.103Z,101791.31
2022-12-18T21:09:37.721Z,101777.38
2022-12-18T21:12:40.317Z,101776.47
2022-12-18T21:15:12.040Z,101791.84
2022-12-18T21:17:44.605Z,101750.81
2022-12-18T21:20:17.521Z,101782.81
2022-12-18T21:22:47.150Z,101775.69
2022-12-18T21:25:15.236Z,101816.41
2022-12-18T21:27:43.169Z,101752.97
2022-12-18T21:30:15.116Z,101810.44
2022-12-18T21:32:44.264Z,101766.59
2022-12-18T21:35:12.082Z,101778.91
2022-12-18T21:37:40.082Z,101772.56
2022-12-18T21:40:08.814Z,101794.50
2022-12-18T21:42:55.265Z,101712.06
2022-12-18T21:45:23.106Z,101784.81
2022-12-18T21:47:51.012Z,101811.91
2022-12-18T21:50:18.855Z,101780.66
2022-12-18T21:52:46.579Z,101765.25
2022-12-18T21:55:14.292Z,101815.19
2022-12-18T21:57:42.187Z,101783.38
2022-12-18T22:00:18.174Z,101777.53
2022-12-18T22:02:47.835Z,101820.28
2022-12-18T22:05:17.324Z,101760.91
2022-12-18T22:07:46.265Z,101753.53
2022-12-18T22:10:14.127Z,101793.16
2022-12-18T22:12:43.940Z,101805.28
2022-12-18T22:15:18.313Z,101733.44
2022-12-18T22:17:58.711Z,101813.13
2022-12-18T22:20:30.037Z,101813.38
2022-12-18T22:22:58.460Z,101787.63
2022-12-18T22:25:26.572Z,101810.53
2022-12-18T22:28:12.851Z,101781.56
2022-12-18T22:30:40.784Z,101817.09
2022-12-18T22:33:08.651Z,101806.75
2022-12-18T22:35:36.768Z,101753.59
2022-12-18T22:38:05.022Z,101801.75
2022-12-18T22:40:32.718Z,101793.88
2022-12-18T22:43:00.410Z,101806.16
2022-12-18T22:45:28.242Z,101769.44
2022-12-18T22:47:56.284Z,101800.47
2022-12-18T22:50:24.180Z,101770.91
2022-12-18T22:52:51.967Z,101752.09
2022-12-18T22:55:19.960Z,101777.56
2022-12-18T22:57:48.698Z,101785.78
2022-12-18T23:00:19.886Z,101789.84
2022-12-18T23:03:00.351Z,101724.94
2022-12-18T23:05:30.363Z,101788.44
2022-12-18T23:07:59.257Z,101783.22
2022-12-18T23:10:27.770Z,101798.78
2022-12-18T23:12:55.611Z,101779.31
2022-12-18T23:15:27.854Z,101768.91
2022-12-18T23:17:58.210Z,101769.16
2022-12-18T23:20:27.530Z,101741.25
2022-12-18T23:22:55.466Z,101786.38
2022-12-18T23:25:25.089Z,101796.00
2022-12-18T23:27:53.045Z,101785.09
2022-12-18T23:30:21.161Z,101790.28
2022-12-18T23:32:48.911Z,101794.09
2022-12-18T23:35:17.626Z,101774.44
2022-12-18T23:37:58.796Z,101746.59
2022-12-18T23:40:29.015Z,101785.44
2022-12-18T23:42:57.032Z,101711.59
2022-12-18T23:45:24.797Z,101731.84
2022-12-18T23:47:52.444Z,101787.34
2022-12-18T23:50:23.779Z,101782.72
2022-12-18T23:52:57.450Z,101696.81
2022-12-18T23:55:32.968Z,101745.44
2022-12-18T23:58:00.777Z,101746.06
